• Join FlightAware (Why Join?)
  • Login
  • US Flag 
03:41AM EDT


 

Airport Tracker/Info


-or-


 

Live Flight TrackerFlight Track Log ✈ C-FHNX ✈ 18-Apr-2013 ✈ CYYZ - CYYT

Flight Track Log - Related Links

Times and Time Zones

All times are in EDT time to prevent confusion due to time zone crossing. See the C-FHNX flight status page for this flight to view local times or setup timezone preferences in your user account.

Time Position Orientation Groundspeed Altitude Reporting Facility
EDT Latitude Longitude Course Direction KTS MPH feet Rate Location/Type
03:24PM 43.6667 -79.5833 227° Southwest 70 81 500  Level Toronto Center
03:25PM 43.6333 -79.6333 227° Southwest 130 150 2,500 1,920 Climbing Toronto Center
03:26PM 43.6000 -79.6833 227° Southwest 170 196 4,400 1,920 Climbing Toronto Center
03:27PM 43.5500 -79.6500 154° Southeast 230 265 6,400 1,260 Climbing Toronto Center
03:28PM 43.5000 -79.5667 130° Southeast 280 322 7,000 300 Climbing Toronto Center
03:29PM 43.5167 -79.4500 79° East 330 380 7,000 1,140 Level Toronto Center
03:30PM 43.5500 -79.3333 68° East 340 391 9,300 2,220 Climbing Toronto Center
03:31PM 43.6000 -79.2167 59° Northeast 370 426 11,500 2,280 Climbing Toronto Center
03:32PM 43.6500 -79.0833 63° Northeast 390 449 13,900 2,400 Climbing Toronto Center
03:33PM 43.7000 -78.9333 65° Northeast 390 449 16,300 2,340 Climbing Toronto Center
03:34PM 43.7500 -78.8000 63° Northeast 400 460 18,600 2,040 Climbing Toronto Center
03:35PM 43.8000 -78.6667 63° Northeast 420 483 20,400 1,800 Climbing Toronto Center
03:36PM 43.8500 -78.5000 67° East 430 495 22,200 1,740 Climbing Toronto Center
03:37PM 43.8833 -78.3667 71° East 440 506 23,900 1,560 Climbing Toronto Center
03:38PM 43.9500 -78.2000 61° Northeast 450 518 25,400 1,500 Climbing Toronto Center
03:39PM 44.0000 -78.0333 67° East 460 529 27,000 1,380 Climbing Toronto Center
03:40PM 44.0500 -77.8667 67° East 460 529 28,200 960 Climbing Toronto Center
03:41PM 44.1167 -77.7000 61° Northeast 480 552 29,000 360 Climbing Toronto Center
03:42PM 44.1833 -77.5333 61° Northeast 480 552 29,000  Level Toronto Center
03:43PM 44.2333 -77.3500 69° East 490 564 29,000  Level Toronto Center
03:44PM 44.3000 -77.2167 55° Northeast 490 564 29,000  Level Toronto Center
03:45PM 44.3833 -77.0500 55° Northeast 490 564 29,000  Level Toronto Center
03:46PM 44.4167 -77.0000 47° Northeast 480 552 29,000  Level Montreal Center
03:47PM 44.5000 -76.8167 57° Northeast 490 564 29,000  Level Montreal Center
03:48PM 44.5667 -76.6500 61° Northeast 490 564 29,000  Level Montreal Center
03:48PM 44.5833 -76.5667 74° East 490 564 29,000  Level Toronto Center
03:49PM 44.6667 -76.4000 55° Northeast 490 564 29,000  Level Toronto Center
03:50PM 44.7000 -76.3167 61° Northeast 490 564 29,000  Level Montreal Center
03:51PM 44.7667 -76.1833 55° Northeast 490 564 29,000 660 Level Montreal Center
03:52PM 44.8167 -76.0000 69° East 480 552 30,400 960 Climbing Montreal Center
03:53PM 44.8500 -75.8000 77° East 480 552 31,000 300 Climbing Montreal Center
03:54PM 44.9000 -75.6333 67° East 480 552 31,000  Level Montreal Center
03:55PM 44.9500 -75.4667 67° East 470 541 31,000  Level Montreal Center
03:56PM 45.0000 -75.2833 69° East 470 541 31,000  Level Montreal Center
03:57PM 45.0333 -75.1167 74° East 470 541 31,000  Level Montreal Center
03:58PM 45.0833 -74.9167 70° East 470 541 31,000  Level Montreal Center
03:59PM 45.1333 -74.7500 67° East 470 541 31,000  Level Montreal Center
04:00PM 45.1833 -74.5833 67° East 480 552 31,000 120 Level Montreal Center
04:01PM 45.2333 -74.4000 69° East 480 552 31,300 900 Climbing Montreal Center
04:02PM 45.2667 -74.2333 74° East 470 541 32,800 900 Climbing Montreal Center
04:03PM 45.3000 -74.0333 77° East 470 541 33,100 720 Climbing Montreal Center
04:04PM 45.3500 -73.8667 67° East 480 552 34,300 900 Climbing Montreal Center
04:05PM 45.4000 -73.6833 69° East 470 541 34,900 300 Climbing Montreal Center
04:06PM 45.4500 -73.5000 69° East 480 552 35,000  Climbing Montreal Center
04:07PM 45.5000 -73.3167 69° East 500 575 35,000  Level Montreal Center
04:08PM 45.5333 -73.1500 74° East 500 575 35,000  Level Montreal Center
04:09PM 45.6000 -72.9500 64° Northeast 500 575 35,000  Level Montreal Center
04:10PM 45.6500 -72.7833 67° East 500 575 35,000  Level Montreal Center
04:11PM 45.6833 -72.5833 77° East 500 575 35,000  Level Montreal Center
04:12PM 45.7333 -72.3833 70° East 500 575 35,000  Level Montreal Center
04:13PM 45.7833 -72.2000 69° East 500 575 35,000  Level Montreal Center
04:14PM 45.8167 -72.0167 75° East 500 575 35,000  Level Montreal Center
04:15PM 45.8667 -71.8333 69° East 500 575 35,000  Level Montreal Center
04:16PM 45.9000 -71.6333 76° East 500 575 35,000  Level Montreal Center
04:17PM 45.9500 -71.4333 70° East 500 575 35,000  Level Montreal Center
04:18PM 46.0000 -71.2667 67° East 500 575 35,000  Level Montreal Center
04:19PM 46.0333 -71.0667 76° East 500 575 35,000  Level Montreal Center
04:20PM 46.0833 -70.8667 70° East 510 587 35,000  Level Montreal Center
04:21PM 46.1333 -70.6667 70° East 500 575 35,000  Level Montreal Center
04:22PM 46.1667 -70.4667 76° East 510 587 35,000  Level Montreal Center
04:23PM 46.2167 -70.3000 67° East 500 575 35,000  Level Montreal Center
04:24PM 46.2500 -70.1000 76° East 500 575 35,000  Level Montreal Center
04:24PM 46.2819 -70.0475 49° Northeast 504 580 35,000  Level Boston Center
04:25PM 46.3236 -69.8536 73° East 504 580 35,000  Level Boston Center
04:26PM 46.3608 -69.6564 75° East 504 580 35,000  Level Boston Center
04:27PM 46.4042 -69.4647 72° East 504 580 35,000  Level Boston Center
04:28PM 46.4447 -69.2667 73° East 504 580 35,000  Level Boston Center
04:29PM 46.4886 -69.0561 73° East 504 580 35,000  Level Boston Center
04:30PM 46.5286 -68.8608 73° East 504 580 35,000  Level Boston Center
04:31PM 46.5661 -68.6622 75° East 504 580 35,000  Level Boston Center
04:32PM 46.6078 -68.4692 72° East 504 580 35,000  Level Boston Center
04:34PM 46.6667 -68.1000 77° East 510 587 35,000  Level Moncton Center
04:35PM 46.6833 -67.9167 82° East 510 587 35,000  Level Moncton Center
04:36PM 46.7178 -67.8831 34° Northeast 510 587 35,000  Level Boston Center
04:36PM 46.7333 -67.7167 82° East 510 587 35,000  Level Moncton Center
04:37PM 46.7667 -67.5333 75° East 510 587 35,000  Level Moncton Center
04:38PM 46.8167 -67.3000 73° East 510 587 35,000  Level Moncton Center
04:39PM 46.8500 -67.1167 75° East 510 587 35,000  Level Moncton Center
04:40PM 46.8833 -66.9000 77° East 510 587 35,000  Level Moncton Center
04:41PM 46.9000 -66.7500 81° East 500 575 35,000  Level Montreal Center
04:42PM 46.9333 -66.5333 77° East 510 587 35,000  Level Montreal Center
04:43PM 46.9500 -66.2833 84° East 520 598 35,000  Level Moncton Center
04:44PM 46.9833 -66.0833 76° East 510 587 35,000  Level Moncton Center
04:45PM 47.0000 -65.8667 83° East 510 587 35,000  Level Moncton Center
04:46PM 47.0167 -65.6667 83° East 510 587 35,000  Level Moncton Center
04:47PM 47.0667 -65.4500 71° East 520 598 35,000  Level Moncton Center
04:48PM 47.0833 -65.2500 83° East 510 587 35,000  Level Moncton Center
04:49PM 47.1000 -65.0333 83° East 520 598 35,000  Level Moncton Center
04:50PM 47.1333 -64.8333 76° East 510 587 35,000  Level Moncton Center
04:51PM 47.1500 -64.6500 82° East 520 598 35,000  Level Moncton Center
04:52PM 47.1667 -64.4167 84° East 520 598 35,000  Level Moncton Center
04:53PM 47.1833 -64.2000 83° East 520 598 35,000  Level Moncton Center
04:54PM 47.2167 -63.9833 77° East 530 610 35,000  Level Moncton Center
04:55PM 47.2333 -63.7833 83° East 520 598 35,000  Level Moncton Center
04:56PM 47.2667 -63.5667 77° East 520 598 35,000  Level Moncton Center
04:57PM 47.2833 -63.3667 83° East 520 598 35,000  Level Moncton Center
04:58PM 47.2833 -63.1667 90° East 520 598 35,000  Level Moncton Center
04:59PM 47.3000 -62.9333 84° East 520 598 35,000  Level Moncton Center
05:00PM 47.3333 -62.7167 77° East 520 598 35,000  Level Moncton Center
05:01PM 47.3500 -62.5000 83° East 520 598 35,000  Level Moncton Center
05:02PM 47.3667 -62.3000 83° East 520 598 35,000  Level Moncton Center
05:03PM 47.4000 -62.0667 78° East 520 598 35,000  Level Moncton Center
05:04PM 47.4000 -61.8500 90° East 520 598 35,000  Level Moncton Center
05:05PM 47.4167 -61.6500 83° East 520 598 35,000  Level Moncton Center
05:06PM 47.4500 -61.4500 76° East 520 598 35,000  Level Moncton Center
05:07PM 47.4500 -61.2333 90° East 520 598 35,000  Level Moncton Center
05:08PM 47.4667 -61.0333 83° East 520 598 35,000  Level Moncton Center
05:09PM 47.5000 -60.7833 79° East 520 598 35,000  Level Moncton Center
05:10PM 47.5000 -60.5833 90° East 530 610 35,000  Level Moncton Center
05:11PM 47.5167 -60.3833 83° East 520 598 35,000  Level Moncton Center
05:12PM 47.5333 -60.1500 84° East 530 610 35,000  Level Moncton Center
05:13PM 47.5500 -59.9500 83° East 530 610 35,000  Level Moncton Center
05:14PM 47.5500 -59.7333 90° East 520 598 35,000  Level Moncton Center
05:15PM 47.5833 -59.5000 78° East 520 598 35,000  Level Moncton Center
05:15PM 47.5833 -59.4667 90° East 520 598 35,000  Level Gander Center
05:16PM 47.5833 -59.3000 90° East 520 598 35,000  Level Moncton Center
05:17PM 47.6000 -59.0833 83° East 530 610 35,000  Level Moncton Center
05:18PM 47.6167 -58.8833 83° East 530 610 35,000  Level Moncton Center
05:19PM 47.6167 -58.6333 90° East 520 598 35,000  Level Moncton Center
05:20PM 47.6333 -58.4333 83° East 530 610 35,000  Level Moncton Center
05:21PM 47.6500 -58.2000 84° East 520 598 35,000  Level Moncton Center
05:22PM 47.6500 -58.0000 90° East 520 598 35,000  Level Moncton Center
05:23PM 47.6833 -57.7833 77° East 530 610 35,000  Level Moncton Center
05:23PM 47.6667 -57.7333 116° Southeast 530 610 35,000  Level Gander Center
05:24PM 47.6833 -57.5500 82° East 520 598 35,000  Level Moncton Center
05:25PM 47.6833 -57.3500 90° East 520 598 35,000  Level Moncton Center
05:26PM 47.7000 -57.1333 83° East 520 598 35,000  Level Moncton Center
05:27PM 47.7000 -56.9333 90° East 520 598 35,000  Level Moncton Center
05:27PM 47.7167 -56.8667 70° East 520 598 35,000  Level Gander Center
05:28PM 47.7167 -56.6333 90° East 520 598 35,000  Level Gander Center
05:29PM 47.7333 -56.4667 81° East 520 598 35,000  Level Moncton Center
05:30PM 47.7333 -56.2500 90° East 530 610 35,000  Level Moncton Center
05:31PM 47.7333 -56.0500 90° East 520 598 35,000  Level Moncton Center
05:32PM 47.7500 -55.8500 83° East 530 610 35,000  Level Moncton Center
05:32PM 47.7500 -55.7833 90° East 530 610 35,000 -420 Level Gander Center
05:33PM 47.7500 -55.6167 90° East 520 598 34,600 -780 Descending Moncton Center
05:34PM 47.7500 -55.4000 90° East 530 610 33,700 -1,800 Descending Moncton Center
05:35PM 47.7667 -55.2000 83° East 520 598 31,100 -2,640 Descending Moncton Center
05:36PM 47.7667 -55.0000 90° East 500 575 28,500 -2,700 Descending Moncton Center
05:37PM 47.7667 -54.7667 90° East 490 564 25,800 -2,580 Descending Moncton Center
05:38PM 47.7667 -54.6000 90° East 480 552 23,400 -2,520 Descending Moncton Center
05:39PM 47.7667 -54.4000 90° East 460 529 20,800 -2,460 Descending Moncton Center
05:39PM 47.7667 -54.3500 90° East 460 529 20,300 -2,100 Descending Gander Center
05:40PM 47.7500 -54.2167 100° East 450 518 18,700 -2,400 Descending Moncton Center
05:41PM 47.7333 -54.0167 97° East 430 495 16,200 -2,220 Descending Moncton Center
05:41PM 47.7333 -54.0000 90° East 420 483 15,900 -1,680 Descending Gander Center
05:42PM 47.7000 -53.8333 106° East 400 460 14,100 -1,920 Descending Gander Center
05:43PM 47.6833 -53.6833 99° East 370 426 12,100 -1,800 Descending Gander Center
05:44PM 47.6667 -53.5333 99° East 360 414 10,500 -1,380 Descending Gander Center
05:45PM 47.6500 -53.4167 102° East 320 368 9,400 -1,320 Descending Gander Center
05:46PM 47.6500 -53.2833 90° East 300 345 7,900 -1,500 Descending Gander Center
05:47PM 47.6167 -53.1667 113° Southeast 300 345 6,400 -1,680 Descending Gander Center
05:48PM 47.6167 -53.0500 90° East 280 322 4,600 -1,500 Descending Gander Center
05:49PM 47.6000 -52.9500 104° East 250 288 3,500 -1,080 Descending Gander Center
05:50PM 47.6000 -52.8667 90° East 210 242 2,500 -1,020 Descending Gander Center